sensor_id;sensor_type;location;lat;lon;timestamp;pressure;altitude;pressure_sealevel;temperature;humidity
8286;BME280;4181;43.416;24.598;2024-03-06T00:01:37;99715.44;;;11.29;100.00
8286;BME280;4181;43.416;24.598;2024-03-06T00:04:18;99716.50;;;11.28;100.00
8286;BME280;4181;43.416;24.598;2024-03-06T00:06:44;99715.44;;;11.29;100.00
8286;BME280;4181;43.416;24.598;2024-03-06T00:09:20;99721.94;;;11.23;100.00
8286;BME280;4181;43.416;24.598;2024-03-06T00:11:50;99722.75;;;11.24;100.00
8286;BME280;4181;43.416;24.598;2024-03-06T00:14:35;99727.69;;;11.27;100.00
8286;BME280;4181;43.416;24.598;2024-03-06T00:17:04;99734.53;;;11.24;100.00
8286;BME280;4181;43.416;24.598;2024-03-06T00:19:32;99721.63;;;11.20;100.00
8286;BME280;4181;43.416;24.598;2024-03-06T00:22:05;99726.06;;;11.26;100.00
8286;BME280;4181;43.416;24.598;2024-03-06T00:24:37;99739.44;;;11.27;100.00
8286;BME280;4181;43.416;24.598;2024-03-06T00:27:06;99736.13;;;11.20;100.00
8286;BME280;4181;43.416;24.598;2024-03-06T00:29:42;99730.69;;;11.25;100.00
8286;BME280;4181;43.416;24.598;2024-03-06T00:32:08;99727.38;;;11.23;100.00
8286;BME280;4181;43.416;24.598;2024-03-06T00:34:43;99734.25;;;11.26;100.00
8286;BME280;4181;43.416;24.598;2024-03-06T00:37:14;99736.69;;;11.22;100.00
8286;BME280;4181;43.416;24.598;2024-03-06T00:39:54;99740.28;;;11.28;100.00
8286;BME280;4181;43.416;24.598;2024-03-06T00:42:34;99751.19;;;11.28;100.00
8286;BME280;4181;43.416;24.598;2024-03-06T00:45:17;99746.53;;;11.28;100.00
8286;BME280;4181;43.416;24.598;2024-03-06T00:47:49;99752.81;;;11.29;100.00
8286;BME280;4181;43.416;24.598;2024-03-06T00:50:14;99751.50;;;10.95;100.00
8286;BME280;4181;43.416;24.598;2024-03-06T00:55:26;99746.28;;;10.88;100.00
8286;BME280;4181;43.416;24.598;2024-03-06T01:00:36;99751.72;;;10.83;100.00
8286;BME280;4181;43.416;24.598;2024-03-06T01:03:08;99747.84;;;10.74;100.00
8286;BME280;4181;43.416;24.598;2024-03-06T01:08:22;99760.69;;;10.79;100.00
8286;BME280;4181;43.416;24.598;2024-03-06T01:13:48;99759.94;;;10.88;100.00
8286;BME280;4181;43.416;24.598;2024-03-06T01:16:16;99771.69;;;10.89;100.00
8286;BME280;4181;43.416;24.598;2024-03-06T01:18:49;99773.81;;;10.82;100.00
8286;BME280;4181;43.416;24.598;2024-03-06T01:21:24;99783.38;;;10.84;100.00
8286;BME280;4181;43.416;24.598;2024-03-06T01:24:02;99776.84;;;10.85;100.00
8286;BME280;4181;43.416;24.598;2024-03-06T01:26:29;99789.94;;;10.88;100.00
8286;BME280;4181;43.416;24.598;2024-03-06T01:29:03;99800.16;;;10.98;100.00
8286;BME280;4181;43.416;24.598;2024-03-06T01:31:40;99803.38;;;10.90;100.00
8286;BME280;4181;43.416;24.598;2024-03-06T01:34:20;99812.84;;;10.82;100.00
8286;BME280;4181;43.416;24.598;2024-03-06T01:36:52;99806.06;;;10.85;100.00
8286;BME280;4181;43.416;24.598;2024-03-06T01:39:26;99812.00;;;10.82;100.00
8286;BME280;4181;43.416;24.598;2024-03-06T01:41:57;99812.81;;;10.77;100.00
8286;BME280;4181;43.416;24.598;2024-03-06T01:44:26;99816.13;;;10.84;100.00
8286;BME280;4181;43.416;24.598;2024-03-06T01:46:59;99816.13;;;10.84;100.00
8286;BME280;4181;43.416;24.598;2024-03-06T01:49:33;99826.41;;;10.72;100.00
8286;BME280;4181;43.416;24.598;2024-03-06T01:52:02;99820.38;;;10.70;100.00
8286;BME280;4181;43.416;24.598;2024-03-06T01:54:40;99819.88;;;10.78;100.00
8286;BME280;4181;43.416;24.598;2024-03-06T01:57:13;99816.34;;;10.78;100.00
8286;BME280;4181;43.416;24.598;2024-03-06T01:59:46;99818.22;;;10.72;100.00
8286;BME280;4181;43.416;24.598;2024-03-06T02:02:26;99807.81;;;10.69;100.00
8286;BME280;4181;43.416;24.598;2024-03-06T02:04:57;99813.69;;;10.83;100.00
8286;BME280;4181;43.416;24.598;2024-03-06T02:07:30;99808.78;;;10.85;100.00
8286;BME280;4181;43.416;24.598;2024-03-06T02:10:06;99815.84;;;10.81;100.00
8286;BME280;4181;43.416;24.598;2024-03-06T02:12:42;99816.13;;;10.84;100.00
8286;BME280;4181;43.416;24.598;2024-03-06T02:15:25;99822.72;;;10.88;100.00
8286;BME280;4181;43.416;24.598;2024-03-06T02:17:55;99828.69;;;10.85;100.00
8286;BME280;4181;43.416;24.598;2024-03-06T02:20:23;99832.00;;;10.87;100.00
8286;BME280;4181;43.416;24.598;2024-03-06T02:22:52;99817.94;;;10.74;100.00
8286;BME280;4181;43.416;24.598;2024-03-06T02:25:21;99808.69;;;10.75;100.00
8286;BME280;4181;43.416;24.598;2024-03-06T02:27:51;99811.88;;;10.67;100.00
8286;BME280;4181;43.416;24.598;2024-03-06T02:30:23;99807.38;;;10.51;100.00
8286;BME280;4181;43.416;24.598;2024-03-06T02:32:56;99790.22;;;10.55;100.00
8286;BME280;4181;43.416;24.598;2024-03-06T02:35:33;99794.88;;;10.55;100.00
8286;BME280;4181;43.416;24.598;2024-03-06T02:38:04;99803.63;;;10.30;100.00
8286;BME280;4181;43.416;24.598;2024-03-06T02:40:36;99794.50;;;10.14;100.00
8286;BME280;4181;43.416;24.598;2024-03-06T02:43:06;99771.38;;;10.22;100.00
8286;BME280;4181;43.416;24.598;2024-03-06T02:45:46;99773.78;;;10.18;100.00
8286;BME280;4181;43.416;24.598;2024-03-06T02:48:21;99769.59;;;10.33;100.00
8286;BME280;4181;43.416;24.598;2024-03-06T02:50:50;99774.72;;;10.29;100.00
8286;BME280;4181;43.416;24.598;2024-03-06T02:53:27;99773.59;;;10.25;100.00
8286;BME280;4181;43.416;24.598;2024-03-06T02:56:04;99775.88;;;10.38;100.00
8286;BME280;4181;43.416;24.598;2024-03-06T02:58:30;99780.38;;;10.49;100.00
8286;BME280;4181;43.416;24.598;2024-03-06T03:01:07;99773.59;;;10.57;100.00
8286;BME280;4181;43.416;24.598;2024-03-06T03:03:49;99788.50;;;10.44;100.00
8286;BME280;4181;43.416;24.598;2024-03-06T03:06:23;99788.56;;;10.49;100.00
8286;BME280;4181;43.416;24.598;2024-03-06T03:11:40;99804.13;;;10.54;100.00
8286;BME280;4181;43.416;24.598;2024-03-06T03:14:10;99809.59;;;10.54;100.00
8286;BME280;4181;43.416;24.598;2024-03-06T03:16:49;99816.31;;;10.41;100.00
8286;BME280;4181;43.416;24.598;2024-03-06T03:19:22;99810.69;;;10.26;100.00
8286;BME280;4181;43.416;24.598;2024-03-06T03:21:55;99797.31;;;10.25;100.00
8286;BME280;4181;43.416;24.598;2024-03-06T03:24:20;99796.03;;;10.32;100.00
8286;BME280;4181;43.416;24.598;2024-03-06T03:26:48;99802.41;;;10.43;100.00
8286;BME280;4181;43.416;24.598;2024-03-06T03:32:04;99816.97;;;10.58;100.00
8286;BME280;4181;43.416;24.598;2024-03-06T03:34:39;99821.44;;;10.64;100.00
8286;BME280;4181;43.416;24.598;2024-03-06T03:37:07;99833.97;;;10.65;100.00
8286;BME280;4181;43.416;24.598;2024-03-06T03:39:36;99834.56;;;10.41;100.00
8286;BME280;4181;43.416;24.598;2024-03-06T03:42:07;99832.75;;;10.51;100.00
8286;BME280;4181;43.416;24.598;2024-03-06T03:44:41;99832.88;;;10.61;100.00
8286;BME280;4181;43.416;24.598;2024-03-06T03:47:07;99831.66;;;10.52;100.00
8286;BME280;4181;43.416;24.598;2024-03-06T03:49:36;99828.41;;;10.55;100.00
8286;BME280;4181;43.416;24.598;2024-03-06T03:52:05;99829.03;;;10.62;100.00
8286;BME280;4181;43.416;24.598;2024-03-06T03:54:41;99830.41;;;10.60;100.00
8286;BME280;4181;43.416;24.598;2024-03-06T03:57:08;99838.91;;;10.68;100.00
8286;BME280;4181;43.416;24.598;2024-03-06T03:59:42;99849.88;;;10.73;100.00
8286;BME280;4181;43.416;24.598;2024-03-06T04:02:10;99854.72;;;10.66;100.00
8286;BME280;4181;43.416;24.598;2024-03-06T04:04:35;99850.88;;;10.62;100.00
8286;BME280;4181;43.416;24.598;2024-03-06T04:07:01;99853.31;;;10.64;100.00
8286;BME280;4181;43.416;24.598;2024-03-06T04:09:28;99855.78;;;10.65;100.00
8286;BME280;4181;43.416;24.598;2024-03-06T04:11:58;99857.94;;;10.63;100.00
8286;BME280;4181;43.416;24.598;2024-03-06T04:14:29;99853.59;;;10.62;100.00
8286;BME280;4181;43.416;24.598;2024-03-06T04:17:12;99864.56;;;10.67;100.00
8286;BME280;4181;43.416;24.598;2024-03-06T04:19:41;99875.78;;;10.71;100.00
8286;BME280;4181;43.416;24.598;2024-03-06T04:22:19;99876.03;;;10.69;100.00
8286;BME280;4181;43.416;24.598;2024-03-06T04:24:50;99883.69;;;10.72;100.00
8286;BME280;4181;43.416;24.598;2024-03-06T04:27:21;99887.53;;;10.71;100.00
8286;BME280;4181;43.416;24.598;2024-03-06T04:29:48;99897.91;;;10.74;100.00
8286;BME280;4181;43.416;24.598;2024-03-06T04:32:15;99908.25;;;10.72;100.00
8286;BME280;4181;43.416;24.598;2024-03-06T04:34:41;99903.06;;;10.71;100.00
8286;BME280;4181;43.416;24.598;2024-03-06T04:37:16;99904.44;;;10.73;100.00
8286;BME280;4181;43.416;24.598;2024-03-06T04:39:53;99905.59;;;10.77;100.00
8286;BME280;4181;43.416;24.598;2024-03-06T04:42:22;99903.63;;;10.73;100.00
8286;BME280;4181;43.416;24.598;2024-03-06T04:44:48;99909.94;;;10.78;100.00
8286;BME280;4181;43.416;24.598;2024-03-06T04:47:21;99922.00;;;10.82;100.00
8286;BME280;4181;43.416;24.598;2024-03-06T04:49:47;99927.16;;;10.79;100.00
8286;BME280;4181;43.416;24.598;2024-03-06T04:52:19;99927.34;;;10.72;100.00
8286;BME280;4181;43.416;24.598;2024-03-06T04:54:56;99934.75;;;10.77;100.00
8286;BME280;4181;43.416;24.598;2024-03-06T04:57:34;99928.88;;;10.63;100.00
8286;BME280;4181;43.416;24.598;2024-03-06T05:00:07;99936.53;;;10.61;100.00
8286;BME280;4181;43.416;24.598;2024-03-06T05:02:34;99930.34;;;10.71;100.00
8286;BME280;4181;43.416;24.598;2024-03-06T05:05:02;99936.78;;;10.38;100.00
8286;BME280;4181;43.416;24.598;2024-03-06T05:07:30;99929.75;;;10.42;100.00
8286;BME280;4181;43.416;24.598;2024-03-06T05:10:00;99918.19;;;10.57;100.00
8286;BME280;4181;43.416;24.598;2024-03-06T05:12:41;99923.75;;;10.67;100.00
8286;BME280;4181;43.416;24.598;2024-03-06T05:15:10;99922.09;;;10.66;100.00
8286;BME280;4181;43.416;24.598;2024-03-06T05:17:48;99931.06;;;10.61;100.00
8286;BME280;4181;43.416;24.598;2024-03-06T05:20:28;99941.16;;;10.61;100.00
8286;BME280;4181;43.416;24.598;2024-03-06T05:23:02;99950.16;;;10.61;100.00
8286;BME280;4181;43.416;24.598;2024-03-06T05:25:35;99952.00;;;10.56;100.00
8286;BME280;4181;43.416;24.598;2024-03-06T05:28:10;99953.38;;;10.58;100.00
8286;BME280;4181;43.416;24.598;2024-03-06T05:30:39;99959.16;;;10.62;100.00
8286;BME280;4181;43.416;24.598;2024-03-06T05:33:07;99963.81;;;10.61;100.00
8286;BME280;4181;43.416;24.598;2024-03-06T05:35:36;99974.78;;;10.66;100.00
8286;BME280;4181;43.416;24.598;2024-03-06T05:38:05;99974.78;;;10.66;100.00
8286;BME280;4181;43.416;24.598;2024-03-06T05:40:47;99982.84;;;10.56;100.00
8286;BME280;4181;43.416;24.598;2024-03-06T05:43:16;99978.66;;;10.49;100.00
8286;BME280;4181;43.416;24.598;2024-03-06T05:45:47;99972.69;;;10.30;100.00
8286;BME280;4181;43.416;24.598;2024-03-06T05:48:27;99968.25;;;10.24;100.00
8286;BME280;4181;43.416;24.598;2024-03-06T05:50:56;99957.34;;;10.46;100.00
8286;BME280;4181;43.416;24.598;2024-03-06T05:53:25;99958.78;;;10.53;100.00
8286;BME280;4181;43.416;24.598;2024-03-06T05:56:03;99946.81;;;10.54;100.00
8286;BME280;4181;43.416;24.598;2024-03-06T05:58:32;99962.97;;;10.61;100.00
8286;BME280;4181;43.416;24.598;2024-03-06T06:01:07;99964.28;;;10.58;100.00
8286;BME280;4181;43.416;24.598;2024-03-06T06:03:44;99963.19;;;10.54;100.00
8286;BME280;4181;43.416;24.598;2024-03-06T06:06:10;99971.81;;;10.46;100.00
8286;BME280;4181;43.416;24.598;2024-03-06T06:08:38;99967.16;;;10.47;100.00
8286;BME280;4181;43.416;24.598;2024-03-06T06:11:06;99968.91;;;10.31;100.00
8286;BME280;4181;43.416;24.598;2024-03-06T06:13:32;99958.50;;;10.50;100.00
8286;BME280;4181;43.416;24.598;2024-03-06T06:15:59;99962.13;;;10.60;100.00
8286;BME280;4181;43.416;24.598;2024-03-06T06:18:28;99963.59;;;10.68;100.00
8286;BME280;4181;43.416;24.598;2024-03-06T06:20:54;99958.25;;;10.78;100.00
8286;BME280;4181;43.416;24.598;2024-03-06T06:23:20;99966.19;;;10.79;100.00
8286;BME280;4181;43.416;24.598;2024-03-06T06:25:48;99965.97;;;10.86;100.00
8286;BME280;4181;43.416;24.598;2024-03-06T06:28:21;99961.91;;;10.88;100.00
8286;BME280;4181;43.416;24.598;2024-03-06T06:30:53;99977.78;;;10.91;100.00
8286;BME280;4181;43.416;24.598;2024-03-06T06:33:25;99982.16;;;10.92;100.00
8286;BME280;4181;43.416;24.598;2024-03-06T06:35:56;99983.72;;;10.88;100.00
8286;BME280;4181;43.416;24.598;2024-03-06T06:38:26;99984.91;;;10.71;100.00
8286;BME280;4181;43.416;24.598;2024-03-06T06:40:55;99991.25;;;10.76;100.00
8286;BME280;4181;43.416;24.598;2024-03-06T06:43:25;99992.44;;;10.85;100.00
8286;BME280;4181;43.416;24.598;2024-03-06T06:46:03;99992.50;;;10.90;100.00
8286;BME280;4181;43.416;24.598;2024-03-06T06:48:40;100001.50;;;10.91;100.00
8286;BME280;4181;43.416;24.598;2024-03-06T06:51:16;100012.75;;;10.94;100.00
8286;BME280;4181;43.416;24.598;2024-03-06T06:53:44;100012.72;;;10.68;100.00
8286;BME280;4181;43.416;24.598;2024-03-06T06:56:12;100015.69;;;10.66;100.00
8286;BME280;4181;43.416;24.598;2024-03-06T06:58:40;100012.03;;;10.56;100.00
8286;BME280;4181;43.416;24.598;2024-03-06T07:01:19;100012.16;;;10.44;100.00
8286;BME280;4181;43.416;24.598;2024-03-06T07:03:46;99994.63;;;10.40;100.00
8286;BME280;4181;43.416;24.598;2024-03-06T07:06:12;100000.34;;;10.60;100.00
8286;BME280;4181;43.416;24.598;2024-03-06T07:08:40;99998.13;;;10.57;100.00
8286;BME280;4181;43.416;24.598;2024-03-06T07:11:07;99999.53;;;10.60;100.00
8286;BME280;4181;43.416;24.598;2024-03-06T07:13:32;100005.97;;;10.54;100.00
8286;BME280;4181;43.416;24.598;2024-03-06T07:16:06;99997.94;;;10.64;100.00
8286;BME280;4181;43.416;24.598;2024-03-06T07:18:35;99998.63;;;10.76;100.00
8286;BME280;4181;43.416;24.598;2024-03-06T07:21:02;100017.47;;;10.77;100.00
8286;BME280;4181;43.416;24.598;2024-03-06T07:23:34;100024.69;;;10.88;100.00
8286;BME280;4181;43.416;24.598;2024-03-06T07:26:02;100029.75;;;11.01;100.00
8286;BME280;4181;43.416;24.598;2024-03-06T07:28:28;100035.81;;;11.08;100.00
8286;BME280;4181;43.416;24.598;2024-03-06T07:30:54;100051.75;;;10.95;100.00
8286;BME280;4181;43.416;24.598;2024-03-06T07:33:21;100053.22;;;11.02;100.00
8286;BME280;4181;43.416;24.598;2024-03-06T07:35:51;100052.34;;;10.97;100.00
8286;BME280;4181;43.416;24.598;2024-03-06T07:38:22;100059.03;;;10.84;100.00
8286;BME280;4181;43.416;24.598;2024-03-06T07:40:48;100061.75;;;10.84;100.00
8286;BME280;4181;43.416;24.598;2024-03-06T07:43:16;100053.69;;;10.94;100.00
8286;BME280;4181;43.416;24.598;2024-03-06T07:45:43;100061.78;;;11.11;100.00
8286;BME280;4181;43.416;24.598;2024-03-06T07:48:09;100060.75;;;11.17;100.00
8286;BME280;4181;43.416;24.598;2024-03-06T07:50:38;100057.28;;;11.21;100.00
8286;BME280;4181;43.416;24.598;2024-03-06T07:53:06;100069.72;;;11.12;100.00
8286;BME280;4181;43.416;24.598;2024-03-06T07:55:35;100073.94;;;11.25;100.00
8286;BME280;4181;43.416;24.598;2024-03-06T07:58:07;100078.44;;;11.36;100.00
8286;BME280;4181;43.416;24.598;2024-03-06T08:00:36;100075.50;;;11.42;100.00
8286;BME280;4181;43.416;24.598;2024-03-06T08:03:06;100079.66;;;11.50;100.00
8286;BME280;4181;43.416;24.598;2024-03-06T08:05:38;100089.78;;;11.49;100.00
8286;BME280;4181;43.416;24.598;2024-03-06T08:08:06;100098.63;;;11.35;100.00
8286;BME280;4181;43.416;24.598;2024-03-06T08:10:36;100101.63;;;11.33;100.00
8286;BME280;4181;43.416;24.598;2024-03-06T08:13:06;100099.84;;;11.44;100.00
8286;BME280;4181;43.416;24.598;2024-03-06T08:15:41;100098.63;;;11.57;100.00
8286;BME280;4181;43.416;24.598;2024-03-06T08:18:09;100094.22;;;11.56;100.00
8286;BME280;4181;43.416;24.598;2024-03-06T08:20:39;100106.69;;;11.68;100.00
8286;BME280;4181;43.416;24.598;2024-03-06T08:23:05;100106.41;;;11.70;100.00
8286;BME280;4181;43.416;24.598;2024-03-06T08:25:32;100116.31;;;11.76;100.00
8286;BME280;4181;43.416;24.598;2024-03-06T08:28:05;100121.28;;;11.84;100.00
8286;BME280;4181;43.416;24.598;2024-03-06T08:30:34;100120.66;;;11.77;100.00
8286;BME280;4181;43.416;24.598;2024-03-06T08:33:05;100128.22;;;11.65;100.00
8286;BME280;4181;43.416;24.598;2024-03-06T08:35:32;100142.81;;;11.53;100.00
8286;BME280;4181;43.416;24.598;2024-03-06T08:38:01;100136.75;;;11.46;100.00
8286;BME280;4181;43.416;24.598;2024-03-06T08:40:33;100142.22;;;11.46;100.00
8286;BME280;4181;43.416;24.598;2024-03-06T08:43:01;100150.16;;;11.48;100.00
8286;BME280;4181;43.416;24.598;2024-03-06T08:45:27;100156.69;;;11.47;100.00
8286;BME280;4181;43.416;24.598;2024-03-06T08:47:52;100160.78;;;11.44;100.00
8286;BME280;4181;43.416;24.598;2024-03-06T08:50:21;100154.31;;;11.56;100.00
8286;BME280;4181;43.416;24.598;2024-03-06T08:52:51;100158.84;;;11.67;100.00
8286;BME280;4181;43.416;24.598;2024-03-06T08:55:19;100165.56;;;11.81;100.00
8286;BME280;4181;43.416;24.598;2024-03-06T08:57:47;100164.81;;;11.90;100.00
8286;BME280;4181;43.416;24.598;2024-03-06T09:00:19;100159.03;;;11.87;100.00
8286;BME280;4181;43.416;24.598;2024-03-06T09:02:46;100181.44;;;11.84;100.00
8286;BME280;4181;43.416;24.598;2024-03-06T09:05:13;100186.75;;;11.69;100.00
8286;BME280;4181;43.416;24.598;2024-03-06T09:07:40;100190.25;;;11.64;100.00
8286;BME280;4181;43.416;24.598;2024-03-06T09:10:08;100192.97;;;11.64;100.00
8286;BME280;4181;43.416;24.598;2024-03-06T09:12:37;100204.88;;;11.53;100.00
8286;BME280;4181;43.416;24.598;2024-03-06T09:15:05;100203.44;;;11.50;100.00
8286;BME280;4181;43.416;24.598;2024-03-06T09:17:37;100199.59;;;11.46;100.00
8286;BME280;4181;43.416;24.598;2024-03-06T09:20:10;100197.47;;;11.53;100.00
8286;BME280;4181;43.416;24.598;2024-03-06T09:22:38;100198.88;;;11.56;100.00
8286;BME280;4181;43.416;24.598;2024-03-06T09:25:11;100194.69;;;11.70;100.00
8286;BME280;4181;43.416;24.598;2024-03-06T09:27:42;100201.09;;;11.59;100.00
8286;BME280;4181;43.416;24.598;2024-03-06T09:30:11;100208.28;;;11.43;100.00
8286;BME280;4181;43.416;24.598;2024-03-06T09:32:41;100206.69;;;11.47;100.00
8286;BME280;4181;43.416;24.598;2024-03-06T09:35:09;100207.22;;;11.44;100.00
8286;BME280;4181;43.416;24.598;2024-03-06T09:37:38;100205.19;;;11.57;100.00
8286;BME280;4181;43.416;24.598;2024-03-06T09:40:08;100208.34;;;11.70;100.00
8286;BME280;4181;43.416;24.598;2024-03-06T09:42:38;100210.97;;;11.87;100.00
8286;BME280;4181;43.416;24.598;2024-03-06T09:45:07;100226.16;;;11.99;100.00
8286;BME280;4181;43.416;24.598;2024-03-06T09:47:35;100232.72;;;11.98;100.00
8286;BME280;4181;43.416;24.598;2024-03-06T09:50:09;100234.00;;;11.91;100.00
8286;BME280;4181;43.416;24.598;2024-03-06T09:52:39;100239.00;;;11.99;100.00
8286;BME280;4181;43.416;24.598;2024-03-06T09:55:07;100237.69;;;12.01;100.00
8286;BME280;4181;43.416;24.598;2024-03-06T09:57:35;100236.72;;;12.17;100.00
8286;BME280;4181;43.416;24.598;2024-03-06T10:00:03;100235.00;;;12.38;100.00
8286;BME280;4181;43.416;24.598;2024-03-06T10:02:54;100241.09;;;12.45;100.00
8286;BME280;4181;43.416;24.598;2024-03-06T10:05:25;100237.03;;;12.52;100.00
8286;BME280;4181;43.416;24.598;2024-03-06T10:13:37;100243.66;;;12.56;100.00
8286;BME280;4181;43.416;24.598;2024-03-06T10:16:05;100254.22;;;12.43;100.00
8286;BME280;4181;43.416;24.598;2024-03-06T10:18:35;100256.59;;;12.34;100.00
8286;BME280;4181;43.416;24.598;2024-03-06T10:21:06;100262.84;;;12.30;100.00
8286;BME280;4181;43.416;24.598;2024-03-06T10:23:46;100252.00;;;12.40;100.00
8286;BME280;4181;43.416;24.598;2024-03-06T10:26:17;100254.22;;;12.43;100.00
8286;BME280;4181;43.416;24.598;2024-03-06T10:28:48;100254.16;;;12.38;100.00
8286;BME280;4181;43.416;24.598;2024-03-06T10:31:29;100245.47;;;12.46;100.00
8286;BME280;4181;43.416;24.598;2024-03-06T10:34:05;100237.97;;;12.63;100.00
8286;BME280;4181;43.416;24.598;2024-03-06T10:36:34;100243.00;;;12.81;100.00
8286;BME280;4181;43.416;24.598;2024-03-06T10:39:07;100238.22;;;12.98;100.00
8286;BME280;4181;43.416;24.598;2024-03-06T10:41:42;100244.66;;;12.82;100.00
8286;BME280;4181;43.416;24.598;2024-03-06T10:44:15;100240.25;;;12.76;100.00
8286;BME280;4181;43.416;24.598;2024-03-06T10:46:44;100231.22;;;12.81;100.00
8286;BME280;4181;43.416;24.598;2024-03-06T10:49:19;100231.84;;;12.88;100.00
8286;BME280;4181;43.416;24.598;2024-03-06T10:51:57;100228.06;;;12.62;100.00
8286;BME280;4181;43.416;24.598;2024-03-06T10:54:29;100226.47;;;12.66;100.00
8286;BME280;4181;43.416;24.598;2024-03-06T10:57:03;100229.06;;;12.46;100.00
8286;BME280;4181;43.416;24.598;2024-03-06T10:59:37;100228.97;;;12.36;100.00
8286;BME280;4181;43.416;24.598;2024-03-06T11:02:09;100216.22;;;12.46;100.00
8286;BME280;4181;43.416;24.598;2024-03-06T11:04:40;100215.19;;;12.57;100.00
8286;BME280;4181;43.416;24.598;2024-03-06T11:07:09;100214.97;;;12.64;100.00
8286;BME280;4181;43.416;24.598;2024-03-06T11:09:41;100210.69;;;12.78;100.00
8286;BME280;4181;43.416;24.598;2024-03-06T11:12:36;100209.09;;;12.87;100.00
8286;BME280;4181;43.416;24.598;2024-03-06T11:15:18;100204.19;;;12.89;100.00
8286;BME280;4181;43.416;24.598;2024-03-06T11:17:49;100202.34;;;13.00;100.00
8286;BME280;4181;43.416;24.598;2024-03-06T11:20:29;100210.28;;;12.59;100.00
8286;BME280;4181;43.416;24.598;2024-03-06T11:23:05;100197.34;;;12.87;100.00
8286;BME280;4181;43.416;24.598;2024-03-06T11:26:07;100195.19;;;12.99;100.00
8286;BME280;4181;43.416;24.598;2024-03-06T11:28:38;100202.41;;;13.05;100.00
8286;BME280;4181;43.416;24.598;2024-03-06T11:31:08;100196.03;;;12.99;100.00
8286;BME280;4181;43.416;24.598;2024-03-06T11:33:44;100194.31;;;12.88;100.00
8286;BME280;4181;43.416;24.598;2024-03-06T11:36:26;100195.47;;;12.97;100.00
8286;BME280;4181;43.416;24.598;2024-03-06T11:41:52;100182.00;;;12.91;100.00
8286;BME280;4181;43.416;24.598;2024-03-06T11:44:26;100184.06;;;12.68;100.00
8286;BME280;4181;43.416;24.598;2024-03-06T11:46:58;100175.72;;;12.95;100.00
8286;BME280;4181;43.416;24.598;2024-03-06T11:49:34;100176.41;;;13.17;100.00
8286;BME280;4181;43.416;24.598;2024-03-06T11:52:04;100177.00;;;13.24;100.00
8286;BME280;4181;43.416;24.598;2024-03-06T11:54:31;100177.78;;;13.10;100.00
8286;BME280;4181;43.416;24.598;2024-03-06T11:57:05;100172.88;;;13.17;100.00
8286;BME280;4181;43.416;24.598;2024-03-06T11:59:35;100169.66;;;13.35;100.00
8286;BME280;4181;43.416;24.598;2024-03-06T12:02:20;100161.75;;;13.43;100.00
8286;BME280;4181;43.416;24.598;2024-03-06T12:04:49;100166.66;;;13.41;100.00
8286;BME280;4181;43.416;24.598;2024-03-06T12:07:28;100169.97;;;13.43;100.00
8286;BME280;4181;43.416;24.598;2024-03-06T12:10:06;100165.03;;;13.50;100.00
8286;BME280;4181;43.416;24.598;2024-03-06T12:12:35;100164.47;;;13.43;100.00
8286;BME280;4181;43.416;24.598;2024-03-06T12:15:09;100163.81;;;13.16;100.00
8286;BME280;4181;43.416;24.598;2024-03-06T12:17:49;100156.28;;;13.48;100.00
8286;BME280;4181;43.416;24.598;2024-03-06T12:20:20;100147.28;;;13.78;100.00
8286;BME280;4181;43.416;24.598;2024-03-06T12:22:49;100149.25;;;14.13;100.00
8286;BME280;4181;43.416;24.598;2024-03-06T12:25:27;100154.47;;;14.49;100.00
8286;BME280;4181;43.416;24.598;2024-03-06T12:28:08;100160.22;;;14.58;100.00
8286;BME280;4181;43.416;24.598;2024-03-06T12:30:45;100149.28;;;14.28;100.00
8286;BME280;4181;43.416;24.598;2024-03-06T12:33:28;100146.53;;;14.28;100.00
8286;BME280;4181;43.416;24.598;2024-03-06T12:36:08;100154.19;;;14.31;100.00
8286;BME280;4181;43.416;24.598;2024-03-06T12:38:40;100150.63;;;14.05;100.00
8286;BME280;4181;43.416;24.598;2024-03-06T12:41:16;100148.16;;;14.04;100.00
8286;BME280;4181;43.416;24.598;2024-03-06T12:43:43;100149.50;;;14.21;100.00
8286;BME280;4181;43.416;24.598;2024-03-06T12:46:08;100143.19;;;14.11;100.00
8286;BME280;4181;43.416;24.598;2024-03-06T12:48:44;100143.75;;;13.97;100.00
8286;BME280;4181;43.416;24.598;2024-03-06T12:51:13;100142.09;;;13.91;100.00
8286;BME280;4181;43.416;24.598;2024-03-06T12:53:47;100139.38;;;14.22;100.00
8286;BME280;4181;43.416;24.598;2024-03-06T12:56:18;100137.19;;;14.39;100.00
8286;BME280;4181;43.416;24.598;2024-03-06T12:58:58;100137.16;;;14.49;100.00
8286;BME280;4181;43.416;24.598;2024-03-06T13:01:30;100128.91;;;14.59;100.00
8286;BME280;4181;43.416;24.598;2024-03-06T13:03:58;100139.38;;;14.52;100.00
8286;BME280;4181;43.416;24.598;2024-03-06T13:06:25;100144.34;;;14.40;100.00
8286;BME280;4181;43.416;24.598;2024-03-06T13:08:54;100130.56;;;14.60;100.00
8286;BME280;4181;43.416;24.598;2024-03-06T13:11:23;100137.16;;;14.54;100.00
8286;BME280;4181;43.416;24.598;2024-03-06T13:13:50;100140.44;;;14.66;100.00
8286;BME280;4181;43.416;24.598;2024-03-06T13:16:17;100142.63;;;14.59;100.00
8286;BME280;4181;43.416;24.598;2024-03-06T13:18:43;100133.59;;;14.23;100.00
8286;BME280;4181;43.416;24.598;2024-03-06T13:21:20;100130.03;;;14.08;100.00
8286;BME280;4181;43.416;24.598;2024-03-06T13:23:55;100128.97;;;14.09;100.00
8286;BME280;4181;43.416;24.598;2024-03-06T13:26:23;100130.59;;;14.20;100.00
8286;BME280;4181;43.416;24.598;2024-03-06T13:28:51;100127.28;;;13.87;100.00
8286;BME280;4181;43.416;24.598;2024-03-06T13:31:24;100122.34;;;14.15;100.00
8286;BME280;4181;43.416;24.598;2024-03-06T13:34:01;100120.44;;;14.10;100.00
8286;BME280;4181;43.416;24.598;2024-03-06T13:36:29;100124.53;;;13.92;100.00
8286;BME280;4181;43.416;24.598;2024-03-06T13:38:56;100116.88;;;13.99;100.00
8286;BME280;4181;43.416;24.598;2024-03-06T13:41:32;100121.78;;;13.82;100.00
8286;BME280;4181;43.416;24.598;2024-03-06T13:43:58;100123.16;;;13.75;100.00